sensor_id;sensor_type;location;lat;lon;timestamp;P1;durP1;ratioP1;P2;durP2;ratioP2
58768;SDS011;44536;47.474;19.056;2024-02-15T00:02:06;20.55;;;8.98;;
58768;SDS011;44536;47.474;19.056;2024-02-15T00:05:08;14.70;;;8.45;;
58768;SDS011;44536;47.474;19.056;2024-02-15T00:08:10;12.18;;;6.75;;
58768;SDS011;44536;47.474;19.056;2024-02-15T00:11:12;16.73;;;8.25;;
58768;SDS011;44536;47.474;19.056;2024-02-15T00:14:15;11.57;;;7.18;;
58768;SDS011;44536;47.474;19.056;2024-02-15T00:17:19;11.45;;;7.07;;
58768;SDS011;44536;47.474;19.056;2024-02-15T00:20:21;17.77;;;6.18;;
58768;SDS011;44536;47.474;19.056;2024-02-15T00:23:23;13.23;;;6.85;;
58768;SDS011;44536;47.474;19.056;2024-02-15T00:26:25;15.30;;;9.00;;
58768;SDS011;44536;47.474;19.056;2024-02-15T00:29:27;14.65;;;9.05;;
58768;SDS011;44536;47.474;19.056;2024-02-15T00:32:30;10.10;;;5.55;;
58768;SDS011;44536;47.474;19.056;2024-02-15T00:35:33;11.10;;;5.72;;
58768;SDS011;44536;47.474;19.056;2024-02-15T00:38:35;22.00;;;7.62;;
58768;SDS011;44536;47.474;19.056;2024-02-15T00:41:38;10.23;;;5.65;;
58768;SDS011;44536;47.474;19.056;2024-02-15T00:44:43;11.48;;;7.15;;
58768;SDS011;44536;47.474;19.056;2024-02-15T00:47:45;11.38;;;8.15;;
58768;SDS011;44536;47.474;19.056;2024-02-15T00:50:47;14.82;;;7.00;;
58768;SDS011;44536;47.474;19.056;2024-02-15T00:53:50;9.77;;;5.55;;
58768;SDS011;44536;47.474;19.056;2024-02-15T00:56:52;10.45;;;5.93;;
58768;SDS011;44536;47.474;19.056;2024-02-15T00:59:54;11.18;;;6.55;;
58768;SDS011;44536;47.474;19.056;2024-02-15T01:02:56;11.05;;;4.85;;
58768;SDS011;44536;47.474;19.056;2024-02-15T01:06:00;10.73;;;5.53;;
58768;SDS011;44536;47.474;19.056;2024-02-15T01:09:02;16.40;;;7.50;;
58768;SDS011;44536;47.474;19.056;2024-02-15T01:12:05;14.40;;;9.05;;
58768;SDS011;44536;47.474;19.056;2024-02-15T01:15:07;12.95;;;7.82;;
58768;SDS011;44536;47.474;19.056;2024-02-15T01:18:10;14.68;;;7.75;;
58768;SDS011;44536;47.474;19.056;2024-02-15T01:21:12;25.25;;;8.93;;
58768;SDS011;44536;47.474;19.056;2024-02-15T01:24:14;14.32;;;7.60;;
58768;SDS011;44536;47.474;19.056;2024-02-15T01:27:16;9.10;;;6.90;;
58768;SDS011;44536;47.474;19.056;2024-02-15T01:30:19;26.35;;;10.27;;
58768;SDS011;44536;47.474;19.056;2024-02-15T01:33:21;16.98;;;9.43;;
58768;SDS011;44536;47.474;19.056;2024-02-15T01:36:23;24.50;;;14.40;;
58768;SDS011;44536;47.474;19.056;2024-02-15T01:39:25;25.85;;;19.05;;
58768;SDS011;44536;47.474;19.056;2024-02-15T01:42:27;18.73;;;13.13;;
58768;SDS011;44536;47.474;19.056;2024-02-15T01:45:29;27.95;;;14.75;;
58768;SDS011;44536;47.474;19.056;2024-02-15T01:48:31;28.52;;;15.95;;
58768;SDS011;44536;47.474;19.056;2024-02-15T01:51:33;22.17;;;14.35;;
58768;SDS011;44536;47.474;19.056;2024-02-15T01:54:39;22.23;;;14.07;;
58768;SDS011;44536;47.474;19.056;2024-02-15T01:57:43;29.50;;;17.30;;
58768;SDS011;44536;47.474;19.056;2024-02-15T02:00:46;23.48;;;13.38;;
58768;SDS011;44536;47.474;19.056;2024-02-15T02:06:51;20.67;;;14.05;;
58768;SDS011;44536;47.474;19.056;2024-02-15T02:09:57;30.45;;;14.85;;
58768;SDS011;44536;47.474;19.056;2024-02-15T02:13:00;19.67;;;12.40;;
58768;SDS011;44536;47.474;19.056;2024-02-15T02:16:21;22.02;;;14.07;;
58768;SDS011;44536;47.474;19.056;2024-02-15T02:19:25;24.75;;;16.62;;
58768;SDS011;44536;47.474;19.056;2024-02-15T02:22:27;29.90;;;15.95;;
58768;SDS011;44536;47.474;19.056;2024-02-15T02:25:34;27.00;;;14.82;;
58768;SDS011;44536;47.474;19.056;2024-02-15T02:28:36;30.02;;;15.63;;
58768;SDS011;44536;47.474;19.056;2024-02-15T02:31:38;25.15;;;13.10;;
58768;SDS011;44536;47.474;19.056;2024-02-15T02:34:40;32.03;;;16.55;;
58768;SDS011;44536;47.474;19.056;2024-02-15T02:37:43;35.88;;;17.52;;
58768;SDS011;44536;47.474;19.056;2024-02-15T02:40:45;34.47;;;17.17;;
58768;SDS011;44536;47.474;19.056;2024-02-15T02:43:47;27.83;;;14.55;;
58768;SDS011;44536;47.474;19.056;2024-02-15T02:46:49;30.60;;;17.02;;
58768;SDS011;44536;47.474;19.056;2024-02-15T02:49:51;29.30;;;16.83;;
58768;SDS011;44536;47.474;19.056;2024-02-15T02:52:53;23.63;;;11.33;;
58768;SDS011;44536;47.474;19.056;2024-02-15T02:55:56;25.52;;;15.38;;
58768;SDS011;44536;47.474;19.056;2024-02-15T02:58:58;23.07;;;16.23;;
58768;SDS011;44536;47.474;19.056;2024-02-15T03:02:00;26.12;;;15.60;;
58768;SDS011;44536;47.474;19.056;2024-02-15T03:05:03;16.20;;;12.52;;
58768;SDS011;44536;47.474;19.056;2024-02-15T03:08:06;29.92;;;17.35;;
58768;SDS011;44536;47.474;19.056;2024-02-15T03:11:10;19.85;;;16.10;;
58768;SDS011;44536;47.474;19.056;2024-02-15T03:14:14;24.67;;;17.65;;
58768;SDS011;44536;47.474;19.056;2024-02-15T03:17:16;21.60;;;14.90;;
58768;SDS011;44536;47.474;19.056;2024-02-15T03:20:18;32.97;;;19.00;;
58768;SDS011;44536;47.474;19.056;2024-02-15T03:23:26;28.52;;;15.90;;
58768;SDS011;44536;47.474;19.056;2024-02-15T03:26:31;21.65;;;13.98;;
58768;SDS011;44536;47.474;19.056;2024-02-15T03:29:39;26.23;;;18.42;;
58768;SDS011;44536;47.474;19.056;2024-02-15T03:32:41;17.20;;;13.75;;
58768;SDS011;44536;47.474;19.056;2024-02-15T03:35:43;20.40;;;13.70;;
58768;SDS011;44536;47.474;19.056;2024-02-15T03:38:45;24.60;;;16.80;;
58768;SDS011;44536;47.474;19.056;2024-02-15T03:41:49;22.52;;;12.63;;
58768;SDS011;44536;47.474;19.056;2024-02-15T03:44:51;13.70;;;10.48;;
58768;SDS011;44536;47.474;19.056;2024-02-15T03:47:53;21.45;;;15.02;;
58768;SDS011;44536;47.474;19.056;2024-02-15T03:50:56;22.17;;;14.75;;
58768;SDS011;44536;47.474;19.056;2024-02-15T03:53:58;20.62;;;11.60;;
58768;SDS011;44536;47.474;19.056;2024-02-15T03:57:00;15.30;;;9.48;;
58768;SDS011;44536;47.474;19.056;2024-02-15T04:00:03;16.15;;;11.18;;
58768;SDS011;44536;47.474;19.056;2024-02-15T04:03:10;22.58;;;15.60;;
58768;SDS011;44536;47.474;19.056;2024-02-15T04:06:12;22.00;;;12.80;;
58768;SDS011;44536;47.474;19.056;2024-02-15T04:09:15;19.08;;;11.85;;
58768;SDS011;44536;47.474;19.056;2024-02-15T04:12:17;30.10;;;16.80;;
58768;SDS011;44536;47.474;19.056;2024-02-15T04:15:19;36.60;;;13.35;;
58768;SDS011;44536;47.474;19.056;2024-02-15T04:18:21;24.37;;;12.98;;
58768;SDS011;44536;47.474;19.056;2024-02-15T04:21:24;20.00;;;10.98;;
58768;SDS011;44536;47.474;19.056;2024-02-15T04:24:26;24.40;;;13.85;;
58768;SDS011;44536;47.474;19.056;2024-02-15T04:27:28;18.50;;;11.60;;
58768;SDS011;44536;47.474;19.056;2024-02-15T04:30:30;23.15;;;13.88;;
58768;SDS011;44536;47.474;19.056;2024-02-15T04:33:32;16.35;;;10.95;;
58768;SDS011;44536;47.474;19.056;2024-02-15T04:36:35;26.58;;;13.50;;
58768;SDS011;44536;47.474;19.056;2024-02-15T04:39:37;19.55;;;12.37;;
58768;SDS011;44536;47.474;19.056;2024-02-15T04:42:39;20.20;;;11.57;;
58768;SDS011;44536;47.474;19.056;2024-02-15T04:45:43;23.67;;;13.23;;
58768;SDS011;44536;47.474;19.056;2024-02-15T04:48:45;19.33;;;13.38;;
58768;SDS011;44536;47.474;19.056;2024-02-15T04:51:47;23.05;;;16.45;;
58768;SDS011;44536;47.474;19.056;2024-02-15T04:54:49;21.37;;;12.23;;
58768;SDS011;44536;47.474;19.056;2024-02-15T04:57:51;22.67;;;12.75;;
58768;SDS011;44536;47.474;19.056;2024-02-15T05:00:57;21.15;;;14.98;;
58768;SDS011;44536;47.474;19.056;2024-02-15T05:04:01;21.37;;;14.45;;
58768;SDS011;44536;47.474;19.056;2024-02-15T05:07:06;28.95;;;15.98;;
58768;SDS011;44536;47.474;19.056;2024-02-15T05:10:08;19.15;;;12.10;;
58768;SDS011;44536;47.474;19.056;2024-02-15T05:13:11;20.35;;;14.43;;
58768;SDS011;44536;47.474;19.056;2024-02-15T05:16:13;23.12;;;12.30;;
58768;SDS011;44536;47.474;19.056;2024-02-15T05:19:16;24.40;;;14.00;;
58768;SDS011;44536;47.474;19.056;2024-02-15T05:22:18;18.70;;;11.82;;
58768;SDS011;44536;47.474;19.056;2024-02-15T05:25:21;30.15;;;15.13;;
58768;SDS011;44536;47.474;19.056;2024-02-15T05:28:28;17.23;;;12.05;;
58768;SDS011;44536;47.474;19.056;2024-02-15T05:31:30;15.80;;;9.52;;
58768;SDS011;44536;47.474;19.056;2024-02-15T05:34:33;16.27;;;10.57;;
58768;SDS011;44536;47.474;19.056;2024-02-15T05:37:36;21.17;;;11.83;;
58768;SDS011;44536;47.474;19.056;2024-02-15T05:40:38;14.70;;;9.02;;
58768;SDS011;44536;47.474;19.056;2024-02-15T05:43:41;15.68;;;12.20;;
58768;SDS011;44536;47.474;19.056;2024-02-15T05:46:43;25.15;;;13.75;;
58768;SDS011;44536;47.474;19.056;2024-02-15T05:49:46;16.67;;;11.60;;
58768;SDS011;44536;47.474;19.056;2024-02-15T05:52:49;20.30;;;12.48;;
58768;SDS011;44536;47.474;19.056;2024-02-15T05:55:51;20.75;;;10.98;;
58768;SDS011;44536;47.474;19.056;2024-02-15T05:58:53;16.25;;;10.70;;
58768;SDS011;44536;47.474;19.056;2024-02-15T06:01:55;22.37;;;11.15;;
58768;SDS011;44536;47.474;19.056;2024-02-15T06:04:58;23.73;;;13.27;;
58768;SDS011;44536;47.474;19.056;2024-02-15T06:08:05;19.77;;;13.10;;
58768;SDS011;44536;47.474;19.056;2024-02-15T06:11:07;16.13;;;9.70;;
58768;SDS011;44536;47.474;19.056;2024-02-15T06:14:11;20.02;;;12.65;;
58768;SDS011;44536;47.474;19.056;2024-02-15T06:17:14;19.80;;;11.65;;
58768;SDS011;44536;47.474;19.056;2024-02-15T06:20:16;24.42;;;14.18;;
58768;SDS011;44536;47.474;19.056;2024-02-15T06:23:22;17.15;;;10.07;;
58768;SDS011;44536;47.474;19.056;2024-02-15T06:26:24;18.00;;;11.48;;
58768;SDS011;44536;47.474;19.056;2024-02-15T06:29:28;19.90;;;10.02;;
58768;SDS011;44536;47.474;19.056;2024-02-15T06:32:49;17.87;;;9.65;;
58768;SDS011;44536;47.474;19.056;2024-02-15T06:36:10;18.77;;;10.85;;
58768;SDS011;44536;47.474;19.056;2024-02-15T06:39:31;17.98;;;11.93;;
58768;SDS011;44536;47.474;19.056;2024-02-15T06:42:47;24.90;;;12.07;;
58768;SDS011;44536;47.474;19.056;2024-02-15T06:45:49;20.05;;;12.32;;
58768;SDS011;44536;47.474;19.056;2024-02-15T06:48:53;22.23;;;13.77;;
58768;SDS011;44536;47.474;19.056;2024-02-15T06:51:57;24.85;;;12.75;;
58768;SDS011;44536;47.474;19.056;2024-02-15T06:55:01;19.62;;;11.05;;
58768;SDS011;44536;47.474;19.056;2024-02-15T06:58:03;20.55;;;13.70;;
58768;SDS011;44536;47.474;19.056;2024-02-15T07:01:06;20.58;;;13.62;;
58768;SDS011;44536;47.474;19.056;2024-02-15T07:04:09;17.23;;;11.48;;
58768;SDS011;44536;47.474;19.056;2024-02-15T07:07:14;26.20;;;16.87;;
58768;SDS011;44536;47.474;19.056;2024-02-15T07:10:18;20.20;;;13.95;;
58768;SDS011;44536;47.474;19.056;2024-02-15T07:13:21;23.95;;;14.18;;
58768;SDS011;44536;47.474;19.056;2024-02-15T07:16:24;16.50;;;11.37;;
58768;SDS011;44536;47.474;19.056;2024-02-15T07:19:26;22.70;;;13.77;;
58768;SDS011;44536;47.474;19.056;2024-02-15T07:22:35;20.05;;;12.57;;
58768;SDS011;44536;47.474;19.056;2024-02-15T07:25:39;17.90;;;10.73;;
58768;SDS011;44536;47.474;19.056;2024-02-15T07:28:41;26.60;;;12.95;;
58768;SDS011;44536;47.474;19.056;2024-02-15T07:31:44;19.50;;;10.95;;
58768;SDS011;44536;47.474;19.056;2024-02-15T07:34:46;18.87;;;13.38;;
58768;SDS011;44536;47.474;19.056;2024-02-15T07:37:53;20.52;;;10.90;;
58768;SDS011;44536;47.474;19.056;2024-02-15T07:40:57;16.23;;;11.48;;
58768;SDS011;44536;47.474;19.056;2024-02-15T07:43:59;32.75;;;16.27;;
58768;SDS011;44536;47.474;19.056;2024-02-15T07:47:02;20.92;;;12.60;;
58768;SDS011;44536;47.474;19.056;2024-02-15T07:50:07;29.63;;;13.00;;
58768;SDS011;44536;47.474;19.056;2024-02-15T07:53:11;18.50;;;11.77;;
58768;SDS011;44536;47.474;19.056;2024-02-15T07:56:14;19.85;;;11.77;;
58768;SDS011;44536;47.474;19.056;2024-02-15T07:59:17;26.12;;;12.90;;
58768;SDS011;44536;47.474;19.056;2024-02-15T08:02:22;24.55;;;14.48;;
58768;SDS011;44536;47.474;19.056;2024-02-15T08:05:25;19.23;;;12.35;;
58768;SDS011;44536;47.474;19.056;2024-02-15T08:08:27;20.60;;;13.48;;
58768;SDS011;44536;47.474;19.056;2024-02-15T08:11:29;23.15;;;13.80;;
58768;SDS011;44536;47.474;19.056;2024-02-15T08:14:31;19.80;;;12.95;;
58768;SDS011;44536;47.474;19.056;2024-02-15T08:17:34;27.20;;;15.55;;
58768;SDS011;44536;47.474;19.056;2024-02-15T08:20:39;24.75;;;12.85;;
58768;SDS011;44536;47.474;19.056;2024-02-15T08:23:43;18.12;;;10.85;;
58768;SDS011;44536;47.474;19.056;2024-02-15T08:26:45;20.88;;;13.55;;
58768;SDS011;44536;47.474;19.056;2024-02-15T08:29:48;28.80;;;13.23;;
58768;SDS011;44536;47.474;19.056;2024-02-15T08:32:50;21.02;;;12.52;;
58768;SDS011;44536;47.474;19.056;2024-02-15T08:35:54;23.17;;;13.23;;
58768;SDS011;44536;47.474;19.056;2024-02-15T08:38:57;27.02;;;16.23;;
58768;SDS011;44536;47.474;19.056;2024-02-15T08:42:03;19.30;;;13.90;;
58768;SDS011;44536;47.474;19.056;2024-02-15T08:45:06;25.52;;;15.18;;
58768;SDS011;44536;47.474;19.056;2024-02-15T08:48:11;24.12;;;14.95;;
58768;SDS011;44536;47.474;19.056;2024-02-15T08:51:15;23.20;;;15.38;;
58768;SDS011;44536;47.474;19.056;2024-02-15T08:54:18;21.35;;;12.18;;
58768;SDS011;44536;47.474;19.056;2024-02-15T08:57:20;20.20;;;13.82;;
58768;SDS011;44536;47.474;19.056;2024-02-15T09:00:23;22.67;;;15.43;;
58768;SDS011;44536;47.474;19.056;2024-02-15T09:03:28;19.70;;;13.50;;
58768;SDS011;44536;47.474;19.056;2024-02-15T09:06:30;30.62;;;15.73;;
58768;SDS011;44536;47.474;19.056;2024-02-15T09:09:33;25.50;;;15.98;;
58768;SDS011;44536;47.474;19.056;2024-02-15T09:12:42;23.87;;;14.85;;
58768;SDS011;44536;47.474;19.056;2024-02-15T09:15:44;31.17;;;19.50;;
58768;SDS011;44536;47.474;19.056;2024-02-15T09:18:49;22.77;;;15.50;;
58768;SDS011;44536;47.474;19.056;2024-02-15T09:21:51;21.50;;;12.98;;
58768;SDS011;44536;47.474;19.056;2024-02-15T09:24:54;20.40;;;13.13;;
58768;SDS011;44536;47.474;19.056;2024-02-15T09:27:56;23.65;;;16.48;;
58768;SDS011;44536;47.474;19.056;2024-02-15T09:30:58;23.10;;;17.77;;
58768;SDS011;44536;47.474;19.056;2024-02-15T09:34:05;28.33;;;16.98;;
58768;SDS011;44536;47.474;19.056;2024-02-15T09:37:09;34.97;;;19.50;;
58768;SDS011;44536;47.474;19.056;2024-02-15T09:43:15;28.87;;;20.33;;
58768;SDS011;44536;47.474;19.056;2024-02-15T09:46:18;27.13;;;17.60;;
58768;SDS011;44536;47.474;19.056;2024-02-15T09:49:20;29.77;;;17.75;;
58768;SDS011;44536;47.474;19.056;2024-02-15T09:52:24;24.85;;;18.17;;
58768;SDS011;44536;47.474;19.056;2024-02-15T09:55:26;32.45;;;19.17;;
58768;SDS011;44536;47.474;19.056;2024-02-15T09:58:29;26.17;;;17.70;;
58768;SDS011;44536;47.474;19.056;2024-02-15T10:01:36;31.00;;;18.85;;
58768;SDS011;44536;47.474;19.056;2024-02-15T10:07:42;26.80;;;17.27;;
58768;SDS011;44536;47.474;19.056;2024-02-15T10:11:09;33.75;;;18.52;;
58768;SDS011;44536;47.474;19.056;2024-02-15T10:14:12;25.02;;;17.17;;
58768;SDS011;44536;47.474;19.056;2024-02-15T10:17:14;26.50;;;18.37;;
58768;SDS011;44536;47.474;19.056;2024-02-15T10:20:18;24.17;;;15.88;;
58768;SDS011;44536;47.474;19.056;2024-02-15T10:23:22;27.27;;;17.70;;
58768;SDS011;44536;47.474;19.056;2024-02-15T10:26:24;31.65;;;19.05;;
58768;SDS011;44536;47.474;19.056;2024-02-15T10:29:28;26.00;;;17.35;;
58768;SDS011;44536;47.474;19.056;2024-02-15T10:32:36;28.38;;;17.65;;
58768;SDS011;44536;47.474;19.056;2024-02-15T10:35:39;26.37;;;19.12;;
58768;SDS011;44536;47.474;19.056;2024-02-15T10:38:41;28.12;;;17.83;;
58768;SDS011;44536;47.474;19.056;2024-02-15T10:41:49;28.55;;;16.67;;
58768;SDS011;44536;47.474;19.056;2024-02-15T10:44:52;31.73;;;19.08;;
58768;SDS011;44536;47.474;19.056;2024-02-15T10:47:57;28.15;;;19.25;;
58768;SDS011;44536;47.474;19.056;2024-02-15T10:50:59;25.90;;;16.52;;
58768;SDS011;44536;47.474;19.056;2024-02-15T10:54:05;24.73;;;16.67;;
58768;SDS011;44536;47.474;19.056;2024-02-15T10:57:10;28.77;;;18.27;;
58768;SDS011;44536;47.474;19.056;2024-02-15T11:00:18;27.50;;;17.15;;
58768;SDS011;44536;47.474;19.056;2024-02-15T11:03:32;28.15;;;17.65;;
58768;SDS011;44536;47.474;19.056;2024-02-15T11:06:39;25.12;;;17.55;;
58768;SDS011;44536;47.474;19.056;2024-02-15T11:09:45;29.87;;;19.77;;
58768;SDS011;44536;47.474;19.056;2024-02-15T11:18:56;31.65;;;17.15;;
58768;SDS011;44536;47.474;19.056;2024-02-15T11:22:00;31.35;;;18.08;;
58768;SDS011;44536;47.474;19.056;2024-02-15T11:25:05;24.40;;;16.12;;
58768;SDS011;44536;47.474;19.056;2024-02-15T11:34:52;27.52;;;16.83;;
58768;SDS011;44536;47.474;19.056;2024-02-15T11:38:11;24.52;;;16.10;;
58768;SDS011;44536;47.474;19.056;2024-02-15T11:41:29;27.60;;;16.80;;
58768;SDS011;44536;47.474;19.056;2024-02-15T11:44:35;27.50;;;17.15;;
58768;SDS011;44536;47.474;19.056;2024-02-15T11:47:39;30.42;;;17.42;;
58768;SDS011;44536;47.474;19.056;2024-02-15T11:50:43;26.02;;;14.70;;
58768;SDS011;44536;47.474;19.056;2024-02-15T11:53:57;24.77;;;15.75;;
58768;SDS011;44536;47.474;19.056;2024-02-15T11:56:59;21.80;;;14.73;;
58768;SDS011;44536;47.474;19.056;2024-02-15T12:00:34;23.60;;;16.48;;
58768;SDS011;44536;47.474;19.056;2024-02-15T12:03:56;24.73;;;16.62;;
58768;SDS011;44536;47.474;19.056;2024-02-15T12:07:17;22.13;;;15.35;;
58768;SDS011;44536;47.474;19.056;2024-02-15T12:10:40;19.80;;;13.93;;
58768;SDS011;44536;47.474;19.056;2024-02-15T12:14:02;21.42;;;14.52;;
58768;SDS011;44536;47.474;19.056;2024-02-15T12:17:23;30.08;;;14.93;;
58768;SDS011;44536;47.474;19.056;2024-02-15T12:20:45;22.80;;;15.25;;
58768;SDS011;44536;47.474;19.056;2024-02-15T12:23:47;24.00;;;16.02;;
58768;SDS011;44536;47.474;19.056;2024-02-15T12:26:59;24.17;;;15.10;;
58768;SDS011;44536;47.474;19.056;2024-02-15T12:30:04;20.80;;;14.38;;
58768;SDS011;44536;47.474;19.056;2024-02-15T12:33:09;22.48;;;14.93;;
58768;SDS011;44536;47.474;19.056;2024-02-15T12:36:14;19.87;;;13.85;;
58768;SDS011;44536;47.474;19.056;2024-02-15T12:39:23;28.92;;;16.02;;
58768;SDS011;44536;47.474;19.056;2024-02-15T12:42:26;21.70;;;13.95;;
58768;SDS011;44536;47.474;19.056;2024-02-15T12:45:31;25.02;;;13.38;;
58768;SDS011;44536;47.474;19.056;2024-02-15T12:48:34;20.83;;;14.43;;
58768;SDS011;44536;47.474;19.056;2024-02-15T12:51:37;19.55;;;13.07;;
58768;SDS011;44536;47.474;19.056;2024-02-15T12:54:40;16.02;;;11.02;;
58768;SDS011;44536;47.474;19.056;2024-02-15T12:57:44;16.80;;;10.65;;
58768;SDS011;44536;47.474;19.056;2024-02-15T13:00:54;13.93;;;9.60;;
58768;SDS011;44536;47.474;19.056;2024-02-15T13:03:58;16.00;;;10.00;;
58768;SDS011;44536;47.474;19.056;2024-02-15T13:07:00;15.50;;;8.40;;
58768;SDS011;44536;47.474;19.056;2024-02-15T13:10:04;13.90;;;7.90;;
58768;SDS011;44536;47.474;19.056;2024-02-15T13:13:14;14.15;;;9.43;;
58768;SDS011;44536;47.474;19.056;2024-02-15T13:16:18;14.00;;;7.72;;
58768;SDS011;44536;47.474;19.056;2024-02-15T13:19:20;12.43;;;6.60;;
58768;SDS011;44536;47.474;19.056;2024-02-15T13:22:23;15.50;;;10.77;;
58768;SDS011;44536;47.474;19.056;2024-02-15T13:25:27;19.30;;;9.90;;
58768;SDS011;44536;47.474;19.056;2024-02-15T13:28:30;15.57;;;9.40;;
58768;SDS011;44536;47.474;19.056;2024-02-15T13:31:33;16.87;;;11.23;;
58768;SDS011;44536;47.474;19.056;2024-02-15T13:34:36;17.57;;;9.27;;
58768;SDS011;44536;47.474;19.056;2024-02-15T13:37:47;19.75;;;11.12;;
58768;SDS011;44536;47.474;19.056;2024-02-15T13:40:51;17.87;;;13.23;;
58768;SDS011;44536;47.474;19.056;2024-02-15T13:43:57;22.60;;;12.75;;
58768;SDS011;44536;47.474;19.056;2024-02-15T13:46:59;20.25;;;13.43;;
58768;SDS011;44536;47.474;19.056;2024-02-15T13:50:04;21.83;;;14.55;;
58768;SDS011;44536;47.474;19.056;2024-02-15T13:53:06;22.48;;;14.43;;
58768;SDS011;44536;47.474;19.056;2024-02-15T13:56:11;20.70;;;12.50;;
58768;SDS011;44536;47.474;19.056;2024-02-15T13:59:13;19.98;;;12.37;;
58768;SDS011;44536;47.474;19.056;2024-02-15T14:02:15;17.45;;;10.35;;
58768;SDS011;44536;47.474;19.056;2024-02-15T14:08:23;16.58;;;12.43;;
58768;SDS011;44536;47.474;19.056;2024-02-15T14:11:27;18.20;;;11.32;;
58768;SDS011;44536;47.474;19.056;2024-02-15T14:14:29;21.40;;;11.55;;
58768;SDS011;44536;47.474;19.056;2024-02-15T14:17:32;20.17;;;12.25;;
58768;SDS011;44536;47.474;19.056;2024-02-15T14:20:34;18.92;;;11.32;;
58768;SDS011;44536;47.474;19.056;2024-02-15T14:23:36;16.45;;;10.25;;
58768;SDS011;44536;47.474;19.056;2024-02-15T14:26:38;17.27;;;10.20;;
58768;SDS011;44536;47.474;19.056;2024-02-15T14:29:41;21.25;;;11.98;;
58768;SDS011;44536;47.474;19.056;2024-02-15T14:33:03;20.65;;;13.55;;
58768;SDS011;44536;47.474;19.056;2024-02-15T14:36:07;17.85;;;10.55;;
58768;SDS011;44536;47.474;19.056;2024-02-15T14:39:09;21.70;;;12.52;;
58768;SDS011;44536;47.474;19.056;2024-02-15T14:42:12;19.50;;;12.82;;
58768;SDS011;44536;47.474;19.056;2024-02-15T14:45:17;17.73;;;12.15;;
58768;SDS011;44536;47.474;19.056;2024-02-15T14:48:20;17.10;;;10.27;;
58768;SDS011;44536;47.474;19.056;2024-02-15T14:51:23;17.73;;;12.48;;
58768;SDS011;44536;47.474;19.056;2024-02-15T14:54:27;20.75;;;13.85;;
58768;SDS011;44536;47.474;19.056;2024-02-15T14:57:29;18.95;;;13.25;;
58768;SDS011;44536;47.474;19.056;2024-02-15T15:00:32;19.45;;;10.52;;
58768;SDS011;44536;47.474;19.056;2024-02-15T15:03:36;19.87;;;12.43;;
58768;SDS011;44536;47.474;19.056;2024-02-15T15:06:44;20.15;;;11.02;;
58768;SDS011;44536;47.474;19.056;2024-02-15T15:13:25;21.27;;;12.30;;
58768;SDS011;44536;47.474;19.056;2024-02-15T15:16:28;20.70;;;13.93;;
58768;SDS011;44536;47.474;19.056;2024-02-15T15:19:32;21.60;;;14.07;;
58768;SDS011;44536;47.474;19.056;2024-02-15T15:22:34;19.65;;;11.73;;
58768;SDS011;44536;47.474;19.056;2024-02-15T15:25:39;24.30;;;13.60;;
58768;SDS011;44536;47.474;19.056;2024-02-15T15:28:42;21.33;;;12.73;;
58768;SDS011;44536;47.474;19.056;2024-02-15T15:31:45;17.10;;;12.02;;
58768;SDS011;44536;47.474;19.056;2024-02-15T15:34:47;24.05;;;14.13;;
58768;SDS011;44536;47.474;19.056;2024-02-15T15:37:49;21.48;;;13.88;;
58768;SDS011;44536;47.474;19.056;2024-02-15T15:40:54;26.45;;;14.23;;
58768;SDS011;44536;47.474;19.056;2024-02-15T15:43:57;28.10;;;17.65;;
58768;SDS011;44536;47.474;19.056;2024-02-15T15:46:59;21.20;;;13.75;;
58768;SDS011;44536;47.474;19.056;2024-02-15T15:50:01;22.75;;;13.40;;
58768;SDS011;44536;47.474;19.056;2024-02-15T15:53:04;27.75;;;16.08;;
58768;SDS011;44536;47.474;19.056;2024-02-15T15:56:06;20.07;;;12.23;;
58768;SDS011;44536;47.474;19.056;2024-02-15T15:59:09;24.48;;;13.35;;
58768;SDS011;44536;47.474;19.056;2024-02-15T16:02:12;24.35;;;12.70;;
58768;SDS011;44536;47.474;19.056;2024-02-15T16:05:14;27.85;;;16.50;;
58768;SDS011;44536;47.474;19.056;2024-02-15T16:08:16;24.92;;;17.83;;
58768;SDS011;44536;47.474;19.056;2024-02-15T16:11:19;19.52;;;12.20;;
58768;SDS011;44536;47.474;19.056;2024-02-15T16:14:21;21.27;;;13.05;;
58768;SDS011;44536;47.474;19.056;2024-02-15T16:17:23;32.33;;;16.02;;
58768;SDS011;44536;47.474;19.056;2024-02-15T16:20:25;23.62;;;14.80;;
58768;SDS011;44536;47.474;19.056;2024-02-15T16:23:27;30.83;;;15.40;;
58768;SDS011;44536;47.474;19.056;2024-02-15T16:26:29;17.55;;;11.88;;
58768;SDS011;44536;47.474;19.056;2024-02-15T16:29:32;29.27;;;13.73;;
58768;SDS011;44536;47.474;19.056;2024-02-15T16:32:34;27.48;;;14.57;;
58768;SDS011;44536;47.474;19.056;2024-02-15T16:35:40;21.92;;;13.50;;
58768;SDS011;44536;47.474;19.056;2024-02-15T16:38:42;22.35;;;14.45;;
58768;SDS011;44536;47.474;19.056;2024-02-15T16:41:48;25.90;;;15.57;;
58768;SDS011;44536;47.474;19.056;2024-02-15T16:44:52;18.15;;;11.95;;
58768;SDS011;44536;47.474;19.056;2024-02-15T16:47:54;22.95;;;13.23;;
58768;SDS011;44536;47.474;19.056;2024-02-15T16:51:02;21.42;;;14.05;;
58768;SDS011;44536;47.474;19.056;2024-02-15T16:54:05;17.43;;;13.07;;
58768;SDS011;44536;47.474;19.056;2024-02-15T16:57:09;24.58;;;13.35;;
58768;SDS011;44536;47.474;19.056;2024-02-15T17:00:17;23.10;;;15.57;;
58768;SDS011;44536;47.474;19.056;2024-02-15T17:03:20;21.52;;;12.43;;
58768;SDS011;44536;47.474;19.056;2024-02-15T17:06:22;19.65;;;11.40;;
58768;SDS011;44536;47.474;19.056;2024-02-15T17:09:24;16.70;;;10.63;;
58768;SDS011;44536;47.474;19.056;2024-02-15T17:12:27;17.42;;;14.40;;
58768;SDS011;44536;47.474;19.056;2024-02-15T17:15:30;19.73;;;12.80;;
58768;SDS011;44536;47.474;19.056;2024-02-15T17:18:33;17.30;;;12.18;;
58768;SDS011;44536;47.474;19.056;2024-02-15T17:21:41;24.52;;;14.23;;
58768;SDS011;44536;47.474;19.056;2024-02-15T17:24:43;20.75;;;14.15;;
58768;SDS011;44536;47.474;19.056;2024-02-15T17:27:45;22.87;;;16.20;;
58768;SDS011;44536;47.474;19.056;2024-02-15T17:30:48;20.07;;;12.97;;
58768;SDS011;44536;47.474;19.056;2024-02-15T17:33:50;20.25;;;14.93;;
58768;SDS011;44536;47.474;19.056;2024-02-15T17:36:52;21.10;;;12.65;;
58768;SDS011;44536;47.474;19.056;2024-02-15T17:39:54;21.87;;;14.93;;
58768;SDS011;44536;47.474;19.056;2024-02-15T17:42:56;21.87;;;14.75;;
58768;SDS011;44536;47.474;19.056;2024-02-15T17:45:58;29.95;;;13.77;;
58768;SDS011;44536;47.474;19.056;2024-02-15T17:49:01;27.55;;;13.65;;
58768;SDS011;44536;47.474;19.056;2024-02-15T17:52:03;24.08;;;14.63;;
58768;SDS011;44536;47.474;19.056;2024-02-15T17:55:05;21.65;;;14.27;;
58768;SDS011;44536;47.474;19.056;2024-02-15T17:58:11;26.67;;;17.80;;
58768;SDS011;44536;47.474;19.056;2024-02-15T18:01:13;25.45;;;15.35;;
58768;SDS011;44536;47.474;19.056;2024-02-15T18:04:16;24.00;;;14.68;;
58768;SDS011;44536;47.474;19.056;2024-02-15T18:07:18;26.58;;;15.20;;
58768;SDS011;44536;47.474;19.056;2024-02-15T18:10:20;21.90;;;13.27;;
58768;SDS011;44536;47.474;19.056;2024-02-15T18:13:24;18.48;;;12.23;;